Time;durP1;ratioP1;P1;durP2;ratioP2;P2;SDS_P1;SDS_P2;PMS_P1;PMS_P2;Temp;Humidity;BMP_temperature;BMP_pressure;BME280_temperature;BME280_humidity;BME280_pressure;Samples;Min_cycle;Max_cycle;Signal;HPM_P1;HPM_P2
2022/11/11 00:02:08;;;;;;;22.05;13.35;;;;;;;;;;6284703;22;20427;-84
2022/11/11 00:04:34;;;;;;;21.60;13.15;;;;;;;;;;6258174;22;19999;-84
2022/11/11 00:07:00;;;;;;;19.38;12.23;;;;;;;;;;6284780;22;20065;-84
2022/11/11 00:09:26;;;;;;;21.17;12.68;;;;;;;;;;6285146;22;20015;-84
2022/11/11 00:11:52;;;;;;;25.05;14.15;;;;;;;;;;6285071;22;19999;-83
2022/11/11 00:14:18;;;;;;;21.13;13.23;;;;;;;;;;6285687;22;20047;-84
2022/11/11 00:25:05;;;;;;;24.08;13.18;;;;;;;;;;6287095;22;20057;-84
2022/11/11 00:27:31;;;;;;;21.23;12.18;;;;;;;;;;6285907;22;20000;-84
2022/11/11 00:29:57;;;;;;;23.75;12.85;;;;;;;;;;6285509;22;20000;-84
2022/11/11 00:32:23;;;;;;;22.60;13.13;;;;;;;;;;6285527;22;20007;-84
2022/11/11 00:37:35;;;;;;;21.13;12.48;;;;;;;;;;6285341;22;20058;-84
2022/11/11 00:40:01;;;;;;;18.85;12.38;;;;;;;;;;6257659;22;20012;-84
2022/11/11 00:42:27;;;;;;;21.67;12.82;;;;;;;;;;6258046;22;20046;-84
2022/11/11 00:44:53;;;;;;;22.60;14.55;;;;;;;;;;6283746;22;20008;-83
2022/11/11 00:52:50;;;;;;;20.33;13.60;;;;;;;;;;6283361;22;20019;-83
2022/11/11 00:55:16;;;;;;;24.27;13.82;;;;;;;;;;6284064;22;20000;-84
2022/11/11 00:57:42;;;;;;;22.45;14.35;;;;;;;;;;6282928;22;20008;-84
2022/11/11 01:00:08;;;;;;;24.52;15.73;;;;;;;;;;6283687;22;20052;-84
2022/11/11 01:02:34;;;;;;;23.65;14.45;;;;;;;;;;6284120;22;20121;-82
2022/11/11 01:05:00;;;;;;;24.63;15.25;;;;;;;;;;6284268;22;20000;-84
2022/11/11 01:07:26;;;;;;;23.42;13.25;;;;;;;;;;6284193;22;19999;-83
2022/11/11 01:09:52;;;;;;;23.27;14.60;;;;;;;;;;6285484;22;20526;-84
2022/11/11 01:12:18;;;;;;;23.27;14.00;;;;;;;;;;6289905;22;19999;-83
2022/11/11 01:14:44;;;;;;;21.67;13.07;;;;;;;;;;6301963;22;19992;-82
2022/11/11 01:17:10;;;;;;;26.08;15.20;;;;;;;;;;6277238;22;20002;-83
2022/11/11 01:19:36;;;;;;;22.88;14.10;;;;;;;;;;6258017;22;20031;-84
2022/11/11 01:22:02;;;;;;;21.98;13.55;;;;;;;;;;6283611;22;20016;-84
2022/11/11 01:24:28;;;;;;;24.33;14.05;;;;;;;;;;6284670;22;20455;-83
2022/11/11 01:26:54;;;;;;;24.35;14.32;;;;;;;;;;6284996;22;20003;-84
2022/11/11 01:29:21;;;;;;;22.45;13.90;;;;;;;;;;6285609;22;20000;-84
2022/11/11 01:31:47;;;;;;;23.67;13.27;;;;;;;;;;6256281;22;20012;-84
2022/11/11 01:34:20;;;;;;;20.33;12.63;;;;;;;;;;6255937;22;20196;-83
2022/11/11 01:36:46;;;;;;;25.02;13.65;;;;;;;;;;6283815;22;20008;-84
2022/11/11 01:39:12;;;;;;;24.35;14.52;;;;;;;;;;6283695;22;20004;-84
2022/11/11 01:41:38;;;;;;;26.13;14.18;;;;;;;;;;6255064;22;20016;-84
2022/11/11 01:44:10;;;;;;;23.65;14.07;;;;;;;;;;6283671;22;20011;-84
2022/11/11 01:46:42;;;;;;;24.33;13.25;;;;;;;;;;6283936;22;19999;-83
2022/11/11 01:49:18;;;;;;;21.10;12.52;;;;;;;;;;6284108;22;20011;-84
2022/11/11 01:51:44;;;;;;;23.08;13.63;;;;;;;;;;6282682;22;20000;-84
2022/11/11 01:54:12;;;;;;;24.98;14.10;;;;;;;;;;6282607;22;19999;-83
2022/11/11 01:56:39;;;;;;;24.90;15.20;;;;;;;;;;6283336;22;20000;-83
2022/11/11 01:59:08;;;;;;;24.38;13.85;;;;;;;;;;6283448;22;20000;-84
2022/11/11 02:01:34;;;;;;;23.08;14.48;;;;;;;;;;6281450;22;20007;-83
2022/11/11 02:06:48;;;;;;;26.27;15.25;;;;;;;;;;6284662;22;20398;-84
2022/11/11 02:09:14;;;;;;;25.65;14.45;;;;;;;;;;6283868;22;19999;-83
2022/11/11 02:14:35;;;;;;;24.10;13.50;;;;;;;;;;6283442;22;20027;-84
2022/11/11 02:17:05;;;;;;;23.13;13.98;;;;;;;;;;6284645;22;20021;-83
2022/11/11 02:19:41;;;;;;;28.17;13.95;;;;;;;;;;6283574;22;20394;-84
2022/11/11 02:22:10;;;;;;;25.58;14.88;;;;;;;;;;6283696;22;20003;-84
2022/11/11 02:24:37;;;;;;;23.15;13.98;;;;;;;;;;6256780;22;20000;-84
2022/11/11 02:27:05;;;;;;;26.00;14.60;;;;;;;;;;6283433;22;19996;-84
2022/11/11 02:29:33;;;;;;;24.33;14.27;;;;;;;;;;6283540;22;20031;-84
2022/11/11 02:31:59;;;;;;;24.75;13.25;;;;;;;;;;6283683;22;20079;-84
2022/11/11 02:34:43;;;;;;;27.13;15.38;;;;;;;;;;6282841;22;20015;-84
2022/11/11 02:37:09;;;;;;;25.60;14.02;;;;;;;;;;6255140;22;20011;-84
2022/11/11 02:39:40;;;;;;;20.20;13.40;;;;;;;;;;6282748;22;20008;-85
2022/11/11 02:42:09;;;;;;;24.33;13.77;;;;;;;;;;6256040;22;20394;-84
2022/11/11 02:44:35;;;;;;;20.45;12.57;;;;;;;;;;6283256;22;20011;-82
2022/11/11 02:47:01;;;;;;;21.95;12.60;;;;;;;;;;6282634;22;20472;-83
2022/11/11 02:49:27;;;;;;;21.90;13.63;;;;;;;;;;6283071;22;20000;-84
2022/11/11 02:51:53;;;;;;;21.63;13.43;;;;;;;;;;6255916;22;20054;-83
2022/11/11 02:54:19;;;;;;;22.70;13.48;;;;;;;;;;6283023;22;20004;-84
2022/11/11 02:59:29;;;;;;;23.20;13.20;;;;;;;;;;6282255;22;20050;-83
2022/11/11 03:01:55;;;;;;;25.77;12.95;;;;;;;;;;6282786;22;19999;-82
2022/11/11 03:04:21;;;;;;;24.58;13.68;;;;;;;;;;6255415;22;20501;-84
2022/11/11 03:06:48;;;;;;;21.48;12.93;;;;;;;;;;6285417;22;20022;-84
2022/11/11 03:09:14;;;;;;;22.95;13.40;;;;;;;;;;6288844;22;20749;-84
2022/11/11 03:11:40;;;;;;;20.80;12.07;;;;;;;;;;6283963;22;20000;-84
2022/11/11 03:14:07;;;;;;;20.48;11.60;;;;;;;;;;6282748;22;20033;-84
2022/11/11 03:19:17;;;;;;;22.08;13.25;;;;;;;;;;6284687;22;20018;-84
2022/11/11 03:21:43;;;;;;;19.90;12.43;;;;;;;;;;6284701;22;20444;-84
2022/11/11 03:24:09;;;;;;;20.02;11.75;;;;;;;;;;6284352;22;20000;-84
2022/11/11 03:26:36;;;;;;;19.77;12.60;;;;;;;;;;6257284;22;20153;-84
2022/11/11 03:29:02;;;;;;;21.55;13.32;;;;;;;;;;6283995;22;20011;-84
2022/11/11 03:31:28;;;;;;;21.25;12.30;;;;;;;;;;6283520;22;20015;-84
2022/11/11 03:33:54;;;;;;;21.30;11.65;;;;;;;;;;6284712;22;20000;-84
2022/11/11 03:38:14;;;;;;;23.52;13.82;;;;;;;;;;6285163;22;20019;-84
2022/11/11 03:39:06;;;;;;;22.70;12.93;;;;;;;;;;6282539;22;20015;-85
2022/11/11 03:41:32;;;;;;;23.77;12.48;;;;;;;;;;6283484;22;20087;-84
2022/11/11 03:43:58;;;;;;;21.77;13.95;;;;;;;;;;6283867;22;20010;-83
2022/11/11 03:46:24;;;;;;;23.63;12.93;;;;;;;;;;6283827;22;20004;-84
2022/11/11 03:48:50;;;;;;;26.17;13.82;;;;;;;;;;6283439;22;19996;-84
2022/11/11 03:51:16;;;;;;;25.23;13.88;;;;;;;;;;6255067;22;20008;-84
2022/11/11 03:53:42;;;;;;;24.83;14.15;;;;;;;;;;6284167;22;20344;-83
2022/11/11 03:56:08;;;;;;;24.75;14.02;;;;;;;;;;6285094;22;19999;-84
2022/11/11 03:58:34;;;;;;;22.85;13.82;;;;;;;;;;6255694;22;20015;-84
2022/11/11 04:00:59;;;;;;;22.65;12.98;;;;;;;;;;6283085;22;20339;-85
2022/11/11 04:11:41;;;;;;;25.48;12.77;;;;;;;;;;6287035;22;20018;-84
2022/11/11 04:16:55;;;;;;;30.65;17.42;;;;;;;;;;6284722;22;20022;-84
2022/11/11 04:22:06;;;;;;;29.02;15.85;;;;;;;;;;6284040;22;20091;-84
2022/11/11 04:27:18;;;;;;;29.27;15.43;;;;;;;;;;6283435;22;20069;-84
2022/11/11 04:29:50;;;;;;;28.95;15.23;;;;;;;;;;6283121;22;20004;-84
2022/11/11 04:35:22;;;;;;;28.23;14.25;;;;;;;;;;6300189;22;20086;-83
2022/11/11 04:37:49;;;;;;;28.15;14.63;;;;;;;;;;6299344;22;20000;-82
2022/11/11 04:43:00;;;;;;;30.95;16.23;;;;;;;;;;6279500;22;20030;-81
2022/11/11 04:45:26;;;;;;;26.25;15.00;;;;;;;;;;6278464;22;20056;-82
2022/11/11 04:48:06;;;;;;;27.65;14.98;;;;;;;;;;6278066;22;20004;-82
2022/11/11 04:50:32;;;;;;;24.98;13.50;;;;;;;;;;6252146;22;20431;-82
2022/11/11 04:52:58;;;;;;;27.83;14.90;;;;;;;;;;6278823;22;20030;-82
2022/11/11 04:58:09;;;;;;;26.65;13.25;;;;;;;;;;6277428;22;20069;-82
2022/11/11 05:00:35;;;;;;;35.88;17.35;;;;;;;;;;6253410;22;20462;-81
2022/11/11 05:03:22;;;;;;;29.38;13.70;;;;;;;;;;6287998;22;20339;-81
2022/11/11 05:11:18;;;;;;;28.98;15.18;;;;;;;;;;6276467;22;20014;-82
2022/11/11 05:22:04;;;;;;;26.10;13.73;;;;;;;;;;6280183;22;20014;-82
2022/11/11 05:27:15;;;;;;;36.50;18.17;;;;;;;;;;6277664;22;20010;-82
2022/11/11 05:29:41;;;;;;;52.55;19.48;;;;;;;;;;6277440;22;20004;-82
2022/11/11 05:32:08;;;;;;;37.10;17.20;;;;;;;;;;6250052;22;20331;-81
2022/11/11 05:34:34;;;;;;;49.67;20.08;;;;;;;;;;6276452;22;20007;-82
2022/11/11 05:37:00;;;;;;;31.42;17.98;;;;;;;;;;6276281;22;19999;-82
2022/11/11 05:39:26;;;;;;;44.85;18.67;;;;;;;;;;6276292;22;20014;-82
2022/11/11 05:41:52;;;;;;;35.72;18.92;;;;;;;;;;6277319;22;19996;-82
2022/11/11 05:44:18;;;;;;;36.60;18.13;;;;;;;;;;6275111;22;20317;-81
2022/11/11 05:46:44;;;;;;;35.53;20.05;;;;;;;;;;6277083;22;20053;-81
2022/11/11 05:49:16;;;;;;;26.45;17.05;;;;;;;;;;6276939;22;20006;-82
2022/11/11 05:51:43;;;;;;;31.93;19.47;;;;;;;;;;6249059;22;19999;-82
2022/11/11 05:54:10;;;;;;;33.97;17.23;;;;;;;;;;6249522;22;20046;-82
2022/11/11 05:56:36;;;;;;;30.77;18.10;;;;;;;;;;6277340;22;20052;-82
2022/11/11 05:59:02;;;;;;;49.78;23.65;;;;;;;;;;6249674;22;20107;-83
2022/11/11 06:01:28;;;;;;;51.10;27.80;;;;;;;;;;6276999;22;20420;-80
2022/11/11 06:03:54;;;;;;;39.25;20.80;;;;;;;;;;6250507;22;20004;-82
2022/11/11 06:06:20;;;;;;;52.72;29.35;;;;;;;;;;6277173;22;19996;-82
2022/11/11 06:08:46;;;;;;;54.25;24.00;;;;;;;;;;6276135;22;20403;-83
2022/11/11 06:11:12;;;;;;;34.42;18.65;;;;;;;;;;6248311;22;20027;-81
2022/11/11 06:13:38;;;;;;;26.67;16.67;;;;;;;;;;6276244;22;20010;-82
2022/11/11 06:16:05;;;;;;;29.42;16.45;;;;;;;;;;6275037;22;20006;-80
2022/11/11 06:18:31;;;;;;;24.48;15.13;;;;;;;;;;6248915;22;20035;-82
2022/11/11 06:20:58;;;;;;;22.02;13.40;;;;;;;;;;6276485;22;20339;-82
2022/11/11 06:23:24;;;;;;;23.42;15.05;;;;;;;;;;6251029;22;20004;-81
2022/11/11 06:28:35;;;;;;;24.13;14.65;;;;;;;;;;6280095;22;20018;-82
2022/11/11 06:31:01;;;;;;;22.58;12.55;;;;;;;;;;6251285;22;20020;-81
2022/11/11 06:33:27;;;;;;;16.13;9.85;;;;;;;;;;6251007;22;20069;-81
2022/11/11 06:35:54;;;;;;;17.90;10.15;;;;;;;;;;6251808;22;20000;-82
2022/11/11 06:38:21;;;;;;;16.95;9.65;;;;;;;;;;6252786;22;20448;-82
2022/11/11 06:40:47;;;;;;;17.20;10.60;;;;;;;;;;6278640;22;19996;-81
2022/11/11 06:43:13;;;;;;;20.90;10.50;;;;;;;;;;6278038;22;20002;-82
2022/11/11 06:45:39;;;;;;;15.00;10.43;;;;;;;;;;6252289;22;20038;-82
2022/11/11 06:48:05;;;;;;;20.80;10.63;;;;;;;;;;6279854;22;20223;-81
2022/11/11 06:50:31;;;;;;;17.75;10.88;;;;;;;;;;6250762;22;20141;-81
2022/11/11 06:53:04;;;;;;;14.98;9.88;;;;;;;;;;6281454;22;20387;-80
2022/11/11 06:55:30;;;;;;;16.80;10.27;;;;;;;;;;6284821;22;20000;-82
2022/11/11 06:58:04;;;;;;;17.90;9.85;;;;;;;;;;6252381;22;20008;-82
2022/11/11 07:00:30;;;;;;;15.73;9.68;;;;;;;;;;6251657;22;20059;-82
2022/11/11 07:02:56;;;;;;;14.23;8.68;;;;;;;;;;6249378;22;20348;-82
2022/11/11 07:05:22;;;;;;;16.00;9.45;;;;;;;;;;6277946;22;20034;-82
2022/11/11 07:07:48;;;;;;;14.82;9.75;;;;;;;;;;6278320;22;19996;-83
2022/11/11 07:10:15;;;;;;;16.98;9.43;;;;;;;;;;6277679;22;20007;-82
2022/11/11 07:12:41;;;;;;;16.33;10.02;;;;;;;;;;6251575;22;20003;-82
2022/11/11 07:15:08;;;;;;;15.80;9.32;;;;;;;;;;6277521;22;20019;-82
2022/11/11 07:17:34;;;;;;;17.58;10.10;;;;;;;;;;6251993;22;20004;-82
2022/11/11 07:20:00;;;;;;;15.15;9.38;;;;;;;;;;6279523;22;20408;-81
2022/11/11 07:22:26;;;;;;;23.30;16.38;;;;;;;;;;6279046;22;20057;-82
2022/11/11 07:24:52;;;;;;;20.35;13.15;;;;;;;;;;6251543;22;20428;-82
2022/11/11 07:27:18;;;;;;;19.60;11.57;;;;;;;;;;6276273;22;20030;-82
2022/11/11 07:29:44;;;;;;;17.58;11.50;;;;;;;;;;6277966;22;20433;-81
2022/11/11 07:32:10;;;;;;;20.23;12.10;;;;;;;;;;6251291;22;20008;-83
2022/11/11 07:34:36;;;;;;;19.92;12.40;;;;;;;;;;6251173;22;20012;-81
2022/11/11 07:37:02;;;;;;;21.20;13.18;;;;;;;;;;6277118;22;20090;-83
2022/11/11 07:39:28;;;;;;;23.75;14.90;;;;;;;;;;6277074;22;20003;-81
2022/11/11 07:41:54;;;;;;;25.90;14.73;;;;;;;;;;6275616;22;19999;-81
2022/11/11 07:44:20;;;;;;;26.05;15.95;;;;;;;;;;6276279;22;20007;-81
2022/11/11 07:46:46;;;;;;;20.63;12.70;;;;;;;;;;6249245;22;20091;-82
2022/11/11 07:49:12;;;;;;;19.42;12.98;;;;;;;;;;6250454;22;20348;-81
2022/11/11 07:51:38;;;;;;;19.95;13.35;;;;;;;;;;6297464;22;20023;-81
2022/11/11 07:54:04;;;;;;;19.80;12.73;;;;;;;;;;6269129;22;20008;-82
2022/11/11 07:56:30;;;;;;;20.23;11.90;;;;;;;;;;6295524;22;20036;-82
2022/11/11 07:58:56;;;;;;;17.75;11.40;;;;;;;;;;6283910;22;20050;-82
2022/11/11 08:01:22;;;;;;;18.98;12.48;;;;;;;;;;6249030;22;20004;-81
2022/11/11 08:03:48;;;;;;;16.10;11.48;;;;;;;;;;6277442;22;20083;-82
2022/11/11 08:06:21;;;;;;;18.83;10.63;;;;;;;;;;6277874;22;19995;-81
2022/11/11 08:08:48;;;;;;;16.23;11.10;;;;;;;;;;6249968;22;20008;-82
2022/11/11 08:11:14;;;;;;;20.88;12.15;;;;;;;;;;6275821;22;20004;-80
2022/11/11 08:13:40;;;;;;;17.35;10.50;;;;;;;;;;6277932;22;20007;-81
2022/11/11 08:16:07;;;;;;;14.98;9.98;;;;;;;;;;6277827;22;20042;-82
2022/11/11 08:18:34;;;;;;;15.35;10.18;;;;;;;;;;6277374;22;20078;-82
2022/11/11 08:21:01;;;;;;;15.80;9.07;;;;;;;;;;6249000;22;19999;-82
2022/11/11 08:23:33;;;;;;;12.88;8.43;;;;;;;;;;6277642;22;20329;-82
2022/11/11 08:26:00;;;;;;;13.38;9.13;;;;;;;;;;6277539;22;20305;-82
2022/11/11 08:28:27;;;;;;;14.48;9.30;;;;;;;;;;6278470;22;20440;-81
2022/11/11 08:30:53;;;;;;;14.43;8.90;;;;;;;;;;6249422;22;20006;-81
2022/11/11 08:33:19;;;;;;;15.40;9.52;;;;;;;;;;6278260;22;20436;-82
2022/11/11 08:35:45;;;;;;;13.77;10.25;;;;;;;;;;6278306;22;20012;-82
2022/11/11 08:38:12;;;;;;;16.90;10.80;;;;;;;;;;6276913;22;20337;-81
2022/11/11 08:40:38;;;;;;;17.85;10.13;;;;;;;;;;6223983;22;20026;-81
2022/11/11 08:43:04;;;;;;;13.32;9.63;;;;;;;;;;6251051;22;20002;-81
2022/11/11 08:45:30;;;;;;;15.10;9.35;;;;;;;;;;6282181;22;20035;-80
2022/11/11 08:47:56;;;;;;;16.42;10.05;;;;;;;;;;6282222;22;20317;-82
2022/11/11 08:50:22;;;;;;;15.43;10.73;;;;;;;;;;6251699;22;20010;-82
2022/11/11 08:52:49;;;;;;;14.43;10.07;;;;;;;;;;6277088;22;19996;-81
2022/11/11 08:55:15;;;;;;;13.48;9.68;;;;;;;;;;6278237;22;20226;-81
2022/11/11 08:57:41;;;;;;;15.80;9.65;;;;;;;;;;6277581;22;20277;-81
2022/11/11 09:00:08;;;;;;;17.63;10.55;;;;;;;;;;6277584;22;20457;-80
2022/11/11 09:02:34;;;;;;;14.68;10.63;;;;;;;;;;6277632;22;20054;-80
2022/11/11 09:05:00;;;;;;;15.45;10.70;;;;;;;;;;6250335;22;20451;-81
2022/11/11 09:07:27;;;;;;;16.90;10.85;;;;;;;;;;6277856;22;20004;-81
2022/11/11 09:09:53;;;;;;;16.13;11.77;;;;;;;;;;6277282;22;20003;-81
2022/11/11 09:12:19;;;;;;;14.50;9.63;;;;;;;;;;6277142;22;20000;-82
2022/11/11 09:14:45;;;;;;;13.52;9.20;;;;;;;;;;6276718;22;20004;-81
2022/11/11 09:17:11;;;;;;;15.02;9.77;;;;;;;;;;6249214;22;20262;-82
2022/11/11 09:19:37;;;;;;;15.95;10.30;;;;;;;;;;6278091;22;19999;-82
2022/11/11 09:22:03;;;;;;;13.05;8.50;;;;;;;;;;6276961;22;20034;-81
2022/11/11 09:24:29;;;;;;;14.55;9.27;;;;;;;;;;6249906;22;20007;-81
2022/11/11 09:26:55;;;;;;;13.40;8.57;;;;;;;;;;6250379;22;20004;-81
2022/11/11 09:29:21;;;;;;;12.63;8.95;;;;;;;;;;6277585;22;20010;-80
2022/11/11 09:31:47;;;;;;;13.25;9.30;;;;;;;;;;6277087;22;19999;-81
2022/11/11 09:34:13;;;;;;;13.23;8.77;;;;;;;;;;6276967;22;20000;-81
2022/11/11 09:36:39;;;;;;;15.75;8.98;;;;;;;;;;6277258;22;20007;-81
2022/11/11 09:39:06;;;;;;;14.63;9.02;;;;;;;;;;6249934;22;20029;-81
2022/11/11 09:41:32;;;;;;;14.05;9.65;;;;;;;;;;6276982;22;19995;-81
2022/11/11 09:44:02;;;;;;;13.32;9.25;;;;;;;;;;6275535;22;20011;-81
2022/11/11 09:46:31;;;;;;;15.15;9.52;;;;;;;;;;6249252;22;20466;-82
2022/11/11 09:49:09;;;;;;;12.98;8.18;;;;;;;;;;6277189;22;20129;-81
2022/11/11 09:51:41;;;;;;;12.45;7.45;;;;;;;;;;6277073;22;19999;-82
2022/11/11 09:54:11;;;;;;;10.82;7.03;;;;;;;;;;6276199;22;20007;-81
2022/11/11 09:56:38;;;;;;;12.20;8.40;;;;;;;;;;6250076;22;20458;-82
2022/11/11 09:59:16;;;;;;;11.60;7.95;;;;;;;;;;6277140;22;20023;-81
2022/11/11 10:01:45;;;;;;;10.68;7.40;;;;;;;;;;6276517;22;20336;-82
2022/11/11 10:04:26;;;;;;;13.25;8.00;;;;;;;;;;6279205;22;19996;-81
2022/11/11 10:06:54;;;;;;;11.73;8.25;;;;;;;;;;6253769;22;20007;-81
2022/11/11 10:09:20;;;;;;;14.65;8.43;;;;;;;;;;6281524;22;20013;-81
2022/11/11 10:11:50;;;;;;;10.95;7.93;;;;;;;;;;6250710;22;20447;-81
2022/11/11 10:14:17;;;;;;;10.80;7.22;;;;;;;;;;6276921;22;20102;-81
2022/11/11 10:16:43;;;;;;;10.35;7.25;;;;;;;;;;6249938;22;20035;-81
2022/11/11 10:19:28;;;;;;;12.38;7.72;;;;;;;;;;6276606;22;20008;-81
2022/11/11 10:21:58;;;;;;;10.32;6.85;;;;;;;;;;6277011;22;20006;-81
2022/11/11 10:24:30;;;;;;;11.13;7.25;;;;;;;;;;6278631;22;20000;-83
2022/11/11 10:26:57;;;;;;;10.85;7.68;;;;;;;;;;6280629;22;20026;-82
2022/11/11 10:29:25;;;;;;;10.65;7.65;;;;;;;;;;6280846;22;20003;-81
2022/11/11 10:32:05;;;;;;;11.23;7.88;;;;;;;;;;6282074;22;20219;-82
2022/11/11 10:34:34;;;;;;;9.63;6.35;;;;;;;;;;6283856;22;20022;-82
2022/11/11 10:37:01;;;;;;;10.70;6.38;;;;;;;;;;6259132;22;20441;-82
2022/11/11 10:39:48;;;;;;;10.65;7.28;;;;;;;;;;6285689;22;20056;-82
2022/11/11 10:42:16;;;;;;;9.77;7.50;;;;;;;;;;6179010;22;20000;-82
2022/11/11 10:44:43;;;;;;;9.68;6.85;;;;;;;;;;6281472;22;20015;-81
2022/11/11 10:47:09;;;;;;;12.00;7.25;;;;;;;;;;6281609;22;20309;-81
2022/11/11 10:49:39;;;;;;;10.73;6.80;;;;;;;;;;6281382;22;20000;-82
2022/11/11 10:52:20;;;;;;;9.68;6.20;;;;;;;;;;6254354;22;20007;-81
2022/11/11 10:54:55;;;;;;;10.32;7.03;;;;;;;;;;6254191;22;20015;-82
2022/11/11 10:57:21;;;;;;;9.02;6.32;;;;;;;;;;6280074;22;20027;-81
2022/11/11 10:59:57;;;;;;;8.95;6.32;;;;;;;;;;6279506;22;20000;-80
2022/11/11 11:02:29;;;;;;;9.10;6.60;;;;;;;;;;6279330;22;20009;-81
2022/11/11 11:05:01;;;;;;;10.45;6.90;;;;;;;;;;6282131;22;20000;-81
2022/11/11 11:07:29;;;;;;;9.13;6.97;;;;;;;;;;6296822;22;20308;-81
2022/11/11 11:10:05;;;;;;;12.20;7.68;;;;;;;;;;6260814;22;20008;-81
2022/11/11 11:12:54;;;;;;;10.15;7.70;;;;;;;;;;6278976;22;20003;-81
2022/11/11 11:15:22;;;;;;;9.27;7.15;;;;;;;;;;6259050;22;20014;-81
2022/11/11 11:17:57;;;;;;;11.50;7.68;;;;;;;;;;6278181;22;20000;-82
2022/11/11 11:20:23;;;;;;;10.85;7.80;;;;;;;;;;6276452;22;20000;-81
2022/11/11 11:22:51;;;;;;;10.32;7.97;;;;;;;;;;6277620;22;19999;-82
2022/11/11 11:25:18;;;;;;;9.75;7.40;;;;;;;;;;6277555;22;20332;-81
2022/11/11 11:27:44;;;;;;;9.50;7.15;;;;;;;;;;6278160;22;19999;-84
2022/11/11 11:30:18;;;;;;;11.82;8.07;;;;;;;;;;6277655;22;20075;-81
2022/11/11 11:32:56;;;;;;;8.75;6.65;;;;;;;;;;6250958;22;20004;-81
2022/11/11 11:35:34;;;;;;;12.38;8.07;;;;;;;;;;6252064;22;20091;-81
2022/11/11 11:38:01;;;;;;;10.10;7.20;;;;;;;;;;6279802;22;20054;-81
2022/11/11 11:40:27;;;;;;;9.38;6.80;;;;;;;;;;6280283;22;20011;-81
2022/11/11 11:42:53;;;;;;;7.70;5.90;;;;;;;;;;6254346;22;19999;-81
2022/11/11 11:45:19;;;;;;;8.98;6.18;;;;;;;;;;6281182;22;20012;-80
2022/11/11 11:48:04;;;;;;;7.53;5.32;;;;;;;;;;6280818;22;20074;-81
2022/11/11 11:50:36;;;;;;;7.65;5.40;;;;;;;;;;6280455;22;20010;-81
2022/11/11 11:53:04;;;;;;;8.10;6.00;;;;;;;;;;6280833;22;20003;-80
2022/11/11 11:55:43;;;;;;;7.95;5.88;;;;;;;;;;6280339;22;20003;-81
2022/11/11 11:58:12;;;;;;;8.52;5.47;;;;;;;;;;6280986;22;20011;-81
2022/11/11 12:00:43;;;;;;;10.25;6.63;;;;;;;;;;6281909;22;20073;-81
2022/11/11 12:03:21;;;;;;;9.48;6.00;;;;;;;;;;6254254;22;20035;-81
2022/11/11 12:06:02;;;;;;;8.82;6.22;;;;;;;;;;6278349;22;20335;-78
2022/11/11 12:08:37;;;;;;;8.23;6.07;;;;;;;;;;6278834;22;20007;-79
2022/11/11 12:11:13;;;;;;;8.32;6.20;;;;;;;;;;6279470;22;20003;-81
2022/11/11 12:13:39;;;;;;;10.00;6.32;;;;;;;;;;6279066;22;20006;-78
2022/11/11 12:16:24;;;;;;;9.73;6.53;;;;;;;;;;6277854;22;20000;-79
2022/11/11 12:18:57;;;;;;;9.68;7.43;;;;;;;;;;6277934;22;19999;-80
2022/11/11 12:21:26;;;;;;;10.32;7.43;;;;;;;;;;6280393;22;20051;-80
2022/11/11 12:24:06;;;;;;;9.05;6.60;;;;;;;;;;6279770;22;19996;-80
2022/11/11 12:26:51;;;;;;;9.25;7.00;;;;;;;;;;6252880;22;20057;-80
2022/11/11 12:29:29;;;;;;;8.63;6.55;;;;;;;;;;6281671;22;20064;-79
2022/11/11 12:32:14;;;;;;;8.93;6.18;;;;;;;;;;6281796;22;20007;-80
2022/11/11 12:34:47;;;;;;;7.82;5.15;;;;;;;;;;6280768;22;20011;-80
2022/11/11 12:37:19;;;;;;;7.50;4.95;;;;;;;;;;6253420;22;20004;-79
2022/11/11 12:39:45;;;;;;;8.25;4.68;;;;;;;;;;6280854;22;20003;-79
2022/11/11 12:42:27;;;;;;;6.68;4.32;;;;;;;;;;6280928;22;20007;-80
2022/11/11 12:45:09;;;;;;;7.50;5.05;;;;;;;;;;6279689;22;20012;-80
2022/11/11 12:47:48;;;;;;;6.57;4.53;;;;;;;;;;6279414;22;20436;-80
2022/11/11 12:50:23;;;;;;;6.43;4.55;;;;;;;;;;6279913;22;20371;-80
2022/11/11 12:52:49;;;;;;;8.18;5.10;;;;;;;;;;6280328;22;20450;-80
2022/11/11 12:55:22;;;;;;;7.25;4.90;;;;;;;;;;6280343;22;20074;-80
2022/11/11 12:57:51;;;;;;;10.18;5.82;;;;;;;;;;6279607;22;20459;-81
2022/11/11 13:00:17;;;;;;;7.53;5.05;;;;;;;;;;6280215;22;20083;-80
2022/11/11 13:02:46;;;;;;;6.82;4.85;;;;;;;;;;6280443;22;20427;-80
2022/11/11 13:05:34;;;;;;;7.70;5.10;;;;;;;;;;6252712;22;20049;-80
2022/11/11 13:08:12;;;;;;;9.75;6.72;;;;;;;;;;6278629;22;20002;-80
2022/11/11 13:10:47;;;;;;;9.50;7.38;;;;;;;;;;6276767;22;20004;-80
2022/11/11 13:13:34;;;;;;;13.73;7.07;;;;;;;;;;6278149;22;20086;-79
2022/11/11 13:16:00;;;;;;;8.95;6.75;;;;;;;;;;6278157;22;20055;-79
2022/11/11 13:18:49;;;;;;;13.48;8.13;;;;;;;;;;6278237;22;20081;-80
2022/11/11 13:21:24;;;;;;;11.05;7.68;;;;;;;;;;6277065;22;20036;-81
2022/11/11 13:23:51;;;;;;;14.18;9.15;;;;;;;;;;6278032;22;20000;-80
2022/11/11 13:26:38;;;;;;;13.23;9.00;;;;;;;;;;6277755;22;20006;-81
2022/11/11 13:29:25;;;;;;;14.98;9.48;;;;;;;;;;6276763;22;20426;-80
2022/11/11 13:31:52;;;;;;;14.70;11.20;;;;;;;;;;6251085;22;20019;-80
2022/11/11 13:34:19;;;;;;;14.23;10.48;;;;;;;;;;6253408;22;20030;-80
2022/11/11 13:36:50;;;;;;;17.20;10.82;;;;;;;;;;6278030;22;20003;-80
2022/11/11 13:39:24;;;;;;;17.60;11.20;;;;;;;;;;6277826;22;20049;-79
2022/11/11 13:41:52;;;;;;;15.82;10.25;;;;;;;;;;6278314;22;20069;-80
2022/11/11 13:44:48;;;;;;;17.55;11.48;;;;;;;;;;6277861;22;20058;-80
2022/11/11 13:47:52;;;;;;;15.68;10.23;;;;;;;;;;6245265;22;20019;-80
2022/11/11 13:50:24;;;;;;;18.05;11.35;;;;;;;;;;6122950;23;20375;-80
2022/11/11 13:53:01;;;;;;;16.43;10.37;;;;;;;;;;6122819;23;20418;-80
2022/11/11 13:55:31;;;;;;;17.58;11.90;;;;;;;;;;6122730;23;20447;-79
2022/11/11 13:57:57;;;;;;;18.40;13.38;;;;;;;;;;6122470;23;20017;-80
2022/11/11 14:00:25;;;;;;;17.73;12.20;;;;;;;;;;6098108;23;20393;-81
2022/11/11 14:03:09;;;;;;;16.13;11.80;;;;;;;;;;6099132;23;20454;-80
2022/11/11 14:05:35;;;;;;;15.90;11.98;;;;;;;;;;6123281;23;20084;-80
2022/11/11 14:08:02;;;;;;;16.67;11.00;;;;;;;;;;6123544;23;20010;-81
2022/11/11 14:10:28;;;;;;;20.70;11.98;;;;;;;;;;6123792;23;20068;-80
2022/11/11 14:12:55;;;;;;;22.42;13.25;;;;;;;;;;6098560;23;20117;-81
2022/11/11 14:15:40;;;;;;;20.17;12.40;;;;;;;;;;6099088;23;20009;-81
2022/11/11 14:18:18;;;;;;;16.75;11.18;;;;;;;;;;6099372;23;20259;-80
2022/11/11 14:20:50;;;;;;;18.25;11.40;;;;;;;;;;6179682;22;20046;-80
2022/11/11 14:23:34;;;;;;;18.75;11.95;;;;;;;;;;6279865;22;20073;-80
2022/11/11 14:26:09;;;;;;;19.98;11.60;;;;;;;;;;6284729;22;20000;-80
2022/11/11 14:28:38;;;;;;;18.20;11.57;;;;;;;;;;6288653;22;20003;-79
2022/11/11 14:31:14;;;;;;;16.98;12.35;;;;;;;;;;6281363;22;20347;-80
2022/11/11 14:34:00;;;;;;;15.50;10.82;;;;;;;;;;6276583;22;20038;-81
2022/11/11 14:36:39;;;;;;;17.17;10.95;;;;;;;;;;6278354;22;20004;-81
2022/11/11 14:39:24;;;;;;;20.15;13.48;;;;;;;;;;6276799;22;20114;-81
2022/11/11 14:41:51;;;;;;;24.08;13.23;;;;;;;;;;6277380;22;20376;-81
2022/11/11 14:44:29;;;;;;;18.40;12.48;;;;;;;;;;6276197;22;20263;-81
2022/11/11 14:47:07;;;;;;;22.75;14.38;;;;;;;;;;6276567;22;20050;-80
2022/11/11 14:49:53;;;;;;;21.88;14.48;;;;;;;;;;6275750;22;20084;-81
2022/11/11 14:52:22;;;;;;;19.10;13.00;;;;;;;;;;6249420;22;20463;-80
2022/11/11 14:54:48;;;;;;;21.00;14.23;;;;;;;;;;6275698;22;20130;-81
2022/11/11 14:57:20;;;;;;;19.15;12.98;;;;;;;;;;6277151;22;20000;-80
2022/11/11 14:59:46;;;;;;;18.42;12.65;;;;;;;;;;6276599;22;20428;-80
2022/11/11 15:02:22;;;;;;;18.98;11.68;;;;;;;;;;6277138;22;20058;-81
2022/11/11 15:04:49;;;;;;;23.50;14.50;;;;;;;;;;6276922;22;20000;-81
2022/11/11 15:07:44;;;;;;;20.92;12.65;;;;;;;;;;6277022;22;20027;-81
2022/11/11 15:10:18;;;;;;;19.58;12.38;;;;;;;;;;6143481;22;20010;-81
2022/11/11 15:13:04;;;;;;;17.80;11.73;;;;;;;;;;6279563;22;20007;-81
2022/11/11 15:15:53;;;;;;;19.08;13.02;;;;;;;;;;6277953;22;20020;-81
2022/11/11 15:18:19;;;;;;;20.48;13.52;;;;;;;;;;6251088;22;20061;-80
2022/11/11 15:21:07;;;;;;;20.92;12.73;;;;;;;;;;6278272;22;20000;-81
2022/11/11 15:23:47;;;;;;;20.63;12.77;;;;;;;;;;6278379;22;20006;-80
2022/11/11 15:26:14;;;;;;;20.30;11.93;;;;;;;;;;6278344;22;20046;-81
2022/11/11 15:28:43;;;;;;;19.10;12.30;;;;;;;;;;6276486;22;20340;-81
2022/11/11 15:31:25;;;;;;;20.13;12.07;;;;;;;;;;6278881;22;20087;-81
2022/11/11 15:33:51;;;;;;;22.60;12.77;;;;;;;;;;6251168;22;20108;-81
2022/11/11 15:36:24;;;;;;;20.30;12.30;;;;;;;;;;6278656;22;20034;-81
2022/11/11 15:38:50;;;;;;;22.35;12.10;;;;;;;;;;6279216;22;19999;-80
2022/11/11 15:41:21;;;;;;;22.40;16.20;;;;;;;;;;6279691;22;20004;-80
2022/11/11 15:43:48;;;;;;;22.80;13.98;;;;;;;;;;6278893;22;20011;-80
2022/11/11 15:46:22;;;;;;;21.27;14.07;;;;;;;;;;6278165;22;20419;-81
2022/11/11 15:48:50;;;;;;;20.00;12.90;;;;;;;;;;6277881;22;20133;-81
2022/11/11 15:51:16;;;;;;;19.73;13.57;;;;;;;;;;6278931;22;20111;-81